Time;durP1;ratioP1;P1;durP2;ratioP2;P2;SDS_P1;SDS_P2;PMS_P1;PMS_P2;Temp;Humidity;BMP_temperature;BMP_pressure;BME280_temperature;BME280_humidity;BME280_pressure;Samples;Min_cycle;Max_cycle;Signal;HPM_P1;HPM_P2
2022/04/15 00:01:07;;;;;;;39.65;26.83;;;13.60;99.90;;;14.06;76.03;102390.19;5072522;28;20075;-69
2022/04/15 00:03:35;;;;;;;37.25;26.88;;;13.70;99.90;;;14.12;75.77;102405.31;5072830;28;20044;-70
2022/04/15 00:06:08;;;;;;;40.67;27.27;;;13.70;99.90;;;14.12;75.38;102403.53;5071558;28;20080;-69
2022/04/15 00:08:37;;;;;;;38.53;27.20;;;13.80;99.90;;;14.19;75.26;102404.44;5072567;28;20102;-69
2022/04/15 00:11:06;;;;;;;38.58;25.77;;;13.80;99.90;;;14.23;75.29;102408.91;5054822;28;20519;-69
2022/04/15 00:13:35;;;;;;;39.50;26.40;;;13.80;99.90;;;13.78;75.19;102328.84;5054933;28;20553;-69
2022/04/15 00:16:06;;;;;;;35.50;24.50;;;13.80;99.90;;;14.26;75.33;102400.94;5072425;28;20486;-69
2022/04/15 00:18:36;;;;;;;37.38;24.13;;;13.80;99.90;;;14.31;75.37;102407.22;5072443;28;20513;-69
2022/04/15 00:21:05;;;;;;;33.20;22.95;;;13.80;99.90;;;14.36;75.24;102408.16;5072367;28;20549;-69
2022/04/15 00:23:34;;;;;;;34.75;22.88;;;13.90;99.90;;;14.38;75.18;102411.69;5072410;28;20040;-69
2022/04/15 00:26:03;;;;;;;33.35;23.08;;;14.00;99.90;;;14.15;74.92;102381.38;5072599;28;20044;-69
2022/04/15 00:28:32;;;;;;;31.40;23.80;;;14.00;99.90;;;14.29;74.87;102411.63;5054626;28;20072;-69
2022/04/15 00:31:01;;;;;;;29.80;22.10;;;13.90;99.90;;;14.26;74.98;102406.28;5072685;28;20051;-69
2022/04/15 00:33:30;;;;;;;34.85;22.40;;;13.90;99.90;;;14.31;74.55;102409.88;5075175;28;20037;-69
2022/04/15 00:35:59;;;;;;;34.13;22.13;;;13.90;99.90;;;14.28;74.60;102408.09;5075870;28;20524;-69
2022/04/15 00:38:27;;;;;;;34.20;22.08;;;13.90;99.90;;;14.24;74.52;102406.28;5075865;28;20079;-69
2022/04/15 00:40:55;;;;;;;32.08;20.98;;;13.90;99.90;;;13.57;74.34;102297.69;5075792;28;20136;-69
2022/04/15 00:43:24;;;;;;;31.52;21.58;;;13.90;99.90;;;14.26;74.91;102412.50;5075710;28;20045;-69
2022/04/15 00:45:52;;;;;;;30.90;21.08;;;13.90;99.90;;;14.31;75.09;102420.53;5075934;28;20064;-69
2022/04/15 00:48:23;;;;;;;22.13;17.58;;;13.90;99.90;;;14.28;75.10;102416.09;5075664;28;20120;-69
2022/04/15 00:50:53;;;;;;;21.25;16.25;;;13.90;99.90;;;14.21;75.53;102416.00;5075964;28;20052;-69
2022/04/15 00:53:24;;;;;;;22.67;16.10;;;13.90;99.90;;;14.29;76.06;102415.19;5076247;28;20064;-69
2022/04/15 00:55:57;;;;;;;18.58;13.98;;;13.90;99.90;;;14.48;76.03;102427.72;5075899;28;20118;-69
2022/04/15 00:58:26;;;;;;;22.08;15.95;;;14.00;99.90;;;14.30;75.88;102418.75;5075732;28;20055;-69
2022/04/15 01:00:58;;;;;;;25.45;19.02;;;14.00;99.90;;;14.26;75.94;102427.56;5075388;28;20068;-69
2022/04/15 01:03:26;;;;;;;32.55;22.42;;;13.90;99.90;;;14.20;75.52;102430.19;5075432;28;20490;-69
2022/04/15 01:06:00;;;;;;;33.47;23.05;;;13.80;99.90;;;14.17;75.04;102432.81;5075203;28;20037;-69
2022/04/15 01:08:30;;;;;;;30.83;22.33;;;13.80;99.90;;;14.09;75.14;102429.25;5075865;28;20109;-69
2022/04/15 01:11:01;;;;;;;37.17;26.07;;;13.70;99.90;;;13.44;75.23;102310.00;5075253;28;20048;-69
2022/04/15 01:13:35;;;;;;;34.00;25.25;;;13.70;99.90;;;14.06;75.27;102429.22;5075206;28;20123;-69
2022/04/15 01:16:07;;;;;;;39.35;27.15;;;13.70;99.90;;;14.06;75.67;102426.56;5057647;28;20052;-69
2022/04/15 01:18:35;;;;;;;39.40;27.65;;;13.70;99.90;;;14.02;75.50;102433.63;5075263;28;20063;-69
2022/04/15 01:21:05;;;;;;;40.47;27.65;;;13.60;99.90;;;13.97;75.68;102434.47;5057355;28;20046;-69
2022/04/15 01:23:35;;;;;;;39.38;27.98;;;13.60;99.90;;;13.92;76.13;102428.22;5075086;28;20040;-69
2022/04/15 01:26:03;;;;;;;37.78;28.35;;;13.50;99.90;;;13.90;76.27;102422.03;5075261;28;20086;-69
2022/04/15 01:28:32;;;;;;;40.25;29.58;;;13.50;99.90;;;13.92;76.02;102437.09;5074874;28;20060;-69
2022/04/15 01:31:00;;;;;;;42.95;31.42;;;13.50;99.90;;;13.90;76.45;102430.88;5074856;28;20064;-69
2022/04/15 01:33:28;;;;;;;42.22;31.15;;;13.50;99.90;;;13.27;76.28;102316.97;5074812;28;20047;-69
2022/04/15 01:35:58;;;;;;;46.47;31.63;;;13.50;99.90;;;13.94;76.38;102429.13;5057006;28;20098;-69
2022/04/15 01:38:26;;;;;;;47.13;33.20;;;13.60;99.90;;;13.99;76.65;102433.63;5074714;28;20045;-70
2022/04/15 01:40:56;;;;;;;46.60;34.42;;;13.60;99.90;;;14.01;76.62;102433.63;5074414;28;20052;-70
2022/04/15 01:43:24;;;;;;;52.58;35.15;;;13.60;99.90;;;14.01;76.76;102436.28;5074064;28;20074;-69
2022/04/15 01:45:53;;;;;;;49.30;34.97;;;13.60;99.90;;;14.05;76.67;102436.28;5074985;28;20040;-69
2022/04/15 01:48:21;;;;;;;48.92;34.53;;;13.70;99.90;;;13.98;76.45;102437.16;5074427;28;20049;-69
2022/04/15 01:50:50;;;;;;;46.88;34.45;;;13.60;99.90;;;13.92;76.43;102433.53;5074936;28;20086;-69
2022/04/15 01:53:22;;;;;;;49.38;35.00;;;13.60;99.90;;;13.94;76.58;102439.75;5074393;28;20429;-69
2022/04/15 01:55:51;;;;;;;50.80;33.95;;;13.60;99.90;;;13.95;76.44;102436.25;5056938;28;20402;-69
2022/04/15 01:58:21;;;;;;;46.20;32.95;;;13.50;99.90;;;13.97;76.31;102435.38;5074307;28;20410;-69
2022/04/15 02:00:49;;;;;;;47.93;33.30;;;13.60;99.90;;;13.96;76.17;102435.34;5074387;28;20417;-69
2022/04/15 02:03:18;;;;;;;50.10;33.08;;;13.60;99.90;;;13.99;76.04;102444.28;5074718;28;20083;-69
2022/04/15 02:05:46;;;;;;;53.72;35.05;;;13.60;99.90;;;14.04;76.28;102444.28;5074367;28;20090;-69
2022/04/15 02:08:14;;;;;;;47.25;34.38;;;13.60;99.90;;;13.99;76.31;102438.94;5074086;28;20048;-69
2022/04/15 02:10:43;;;;;;;53.33;35.83;;;13.60;99.90;;;14.07;76.23;102454.97;5074344;28;20044;-69
2022/04/15 02:13:11;;;;;;;51.13;35.53;;;13.70;99.90;;;13.99;76.10;102448.69;5074258;28;20094;-70
2022/04/15 02:15:41;;;;;;;56.72;36.20;;;13.70;99.90;;;14.04;76.22;102455.81;5073938;28;20435;-69
2022/04/15 02:18:09;;;;;;;56.83;37.23;;;13.70;99.90;;;14.06;76.38;102455.81;5074222;28;20047;-69
2022/04/15 02:20:38;;;;;;;32.03;24.02;;;13.70;99.90;;;13.92;74.76;102446.84;5073827;28;20044;-69
2022/04/15 02:23:06;;;;;;;27.77;21.30;;;13.60;99.90;;;13.45;74.24;102458.00;5073798;28;20141;-69
2022/04/15 02:25:35;;;;;;;28.05;22.70;;;13.30;99.90;;;13.20;75.62;102449.78;5073788;28;20070;-69
2022/04/15 02:28:03;;;;;;;25.67;19.25;;;13.00;99.90;;;13.10;76.14;102451.47;5073725;28;20044;-70
2022/04/15 02:30:32;;;;;;;31.92;24.83;;;12.90;99.90;;;13.15;76.47;102470.09;5055626;28;20053;-69
2022/04/15 02:33:01;;;;;;;24.95;21.17;;;12.80;99.90;;;13.13;76.81;102469.16;5073824;28;20544;-69
2022/04/15 02:35:30;;;;;;;27.77;22.35;;;12.80;99.90;;;12.95;77.49;102461.84;5073694;28;20059;-69
2022/04/15 02:37:59;;;;;;;21.15;17.88;;;12.70;99.90;;;12.84;77.63;102467.91;5073563;28;20049;-69
2022/04/15 02:40:28;;;;;;;19.63;16.63;;;12.50;99.90;;;12.76;77.68;102469.59;5073366;28;20057;-69
2022/04/15 02:42:56;;;;;;;28.83;21.95;;;12.40;99.90;;;12.94;77.41;102469.81;5073509;28;20079;-69
2022/04/15 02:45:24;;;;;;;22.90;17.10;;;12.50;99.90;;;12.59;76.49;102472.03;5073760;28;20068;-69
2022/04/15 02:47:53;;;;;;;42.47;29.85;;;12.30;99.90;;;12.65;76.69;102475.69;5073416;28;20494;-69
2022/04/15 02:50:23;;;;;;;31.73;24.30;;;12.30;99.90;;;12.57;76.69;102444.56;5073355;28;20044;-69
2022/04/15 02:52:52;;;;;;;53.75;37.65;;;12.40;99.90;;;12.72;77.97;102484.59;5073352;28;20040;-69
2022/04/15 02:55:20;;;;;;;54.50;37.60;;;12.40;99.90;;;12.39;80.02;102487.69;5073002;28;20040;-69
2022/04/15 02:57:49;;;;;;;58.90;40.85;;;12.10;99.90;;;12.42;81.04;102486.84;5073197;28;20563;-69
2022/04/15 03:00:18;;;;;;;65.10;43.28;;;12.20;99.90;;;11.57;83.66;102485.47;5073513;28;20548;-69
2022/04/15 03:02:46;;;;;;;68.38;44.25;;;11.50;99.90;;;11.45;85.86;102482.59;5073419;28;20045;-69
2022/04/15 03:05:15;;;;;;;80.82;48.28;;;11.30;99.90;;;11.81;85.85;102462.94;5073420;28;20465;-69
2022/04/15 03:07:45;;;;;;;115.00;48.88;;;11.60;99.90;;;11.23;87.82;102485.72;5073740;28;20048;-69
2022/04/15 03:10:13;;;;;;;103.45;53.03;;;11.20;99.90;;;11.05;90.64;102490.69;5073182;28;20498;-68
2022/04/15 03:12:42;;;;;;;206.15;54.03;;;10.90;99.90;;;11.01;91.14;102488.84;5073372;28;20094;-69
2022/04/15 03:15:11;;;;;;;83.45;53.05;;;10.90;99.90;;;11.17;91.49;102493.53;5073098;28;20060;-69
2022/04/15 03:17:39;;;;;;;121.68;49.38;;;11.00;99.90;;;11.22;91.30;102488.34;5073338;28;20052;-69
2022/04/15 03:20:10;;;;;;;73.65;47.20;;;11.00;99.90;;;10.86;93.35;102494.69;5073013;28;20143;-69
2022/04/15 03:22:40;;;;;;;73.28;47.03;;;10.70;99.90;;;11.09;92.93;102502.22;5071989;28;20044;-69
2022/04/15 03:25:13;;;;;;;65.68;44.05;;;10.80;99.90;;;11.34;92.32;102491.22;5073011;28;20094;-69
2022/04/15 03:27:42;;;;;;;66.30;43.60;;;11.00;99.90;;;11.47;91.25;102487.94;5072952;28;20041;-69
2022/04/15 03:30:12;;;;;;;68.88;44.45;;;11.20;99.90;;;11.74;90.90;102493.75;5072897;28;20041;-69
2022/04/15 03:32:46;;;;;;;68.32;44.95;;;11.40;99.90;;;11.90;90.05;102505.50;5072905;28;20040;-69
2022/04/15 03:35:16;;;;;;;72.15;47.22;;;11.60;99.90;;;12.03;89.33;102504.81;5072916;28;20037;-69
2022/04/15 03:37:44;;;;;;;70.00;44.88;;;11.80;99.90;;;12.14;88.52;102497.91;5072922;28;20041;-69
2022/04/15 03:40:14;;;;;;;71.05;45.78;;;11.90;99.90;;;11.61;88.22;102396.31;5073077;28;20057;-70
2022/04/15 03:42:48;;;;;;;75.15;47.60;;;12.00;99.90;;;12.15;88.40;102497.06;5072661;28;20090;-69
2022/04/15 03:45:19;;;;;;;74.18;48.63;;;11.90;99.90;;;12.28;87.61;102504.31;5072842;28;20064;-69
2022/04/15 03:47:48;;;;;;;75.68;47.47;;;12.00;99.90;;;11.90;87.90;102506.41;5073051;28;20045;-69
2022/04/15 03:50:17;;;;;;;81.60;47.47;;;11.80;99.90;;;11.21;90.84;102508.63;5073046;28;20050;-69
2022/04/15 03:52:47;;;;;;;88.05;47.88;;;11.20;99.90;;;11.23;90.98;102512.19;5072966;28;20097;-69
2022/04/15 03:55:19;;;;;;;76.40;50.03;;;11.20;99.90;;;11.53;92.10;102515.44;5072783;28;20140;-69
2022/04/15 03:57:49;;;;;;;79.28;48.83;;;11.20;99.90;;;11.78;90.99;102509.75;5072680;28;20045;-69
2022/04/15 04:00:20;;;;;;;77.67;48.67;;;11.40;99.90;;;11.75;90.52;102507.00;5072931;28;20055;-69
2022/04/15 04:02:50;;;;;;;76.28;49.15;;;11.50;99.90;;;11.96;89.89;102505.59;5054901;28;20090;-69
2022/04/15 04:05:19;;;;;;;89.65;49.47;;;11.60;99.90;;;12.04;89.18;102512.78;5072685;28;20036;-69
2022/04/15 04:07:48;;;;;;;74.15;47.75;;;11.80;99.90;;;11.95;88.66;102509.09;5074783;28;20143;-69
2022/04/15 04:10:18;;;;;;;73.95;47.00;;;11.70;99.90;;;11.68;90.18;102506.88;5076354;28;20048;-69
2022/04/15 04:12:48;;;;;;;73.22;47.05;;;11.50;99.90;;;11.48;91.70;102510.91;5076434;28;20049;-69
2022/04/15 04:15:16;;;;;;;77.50;49.75;;;11.20;99.90;;;11.64;91.25;102511.22;5058681;28;20052;-69
2022/04/15 04:17:46;;;;;;;70.88;47.22;;;11.40;99.90;;;11.88;90.51;102510.78;5076540;28;20072;-69
2022/04/15 04:20:16;;;;;;;85.90;44.33;;;11.60;99.90;;;11.09;90.99;102545.47;5076522;28;20048;-69
2022/04/15 04:22:44;;;;;;;161.18;46.22;;;11.10;99.90;;;10.78;93.04;102524.53;5076554;28;20041;-69
2022/04/15 04:25:13;;;;;;;87.20;43.95;;;10.70;99.90;;;10.98;94.52;102523.16;5076363;28;20049;-69
2022/04/15 04:27:44;;;;;;;103.40;44.40;;;10.70;99.90;;;10.41;94.87;102517.53;5075964;28;20040;-69
2022/04/15 04:30:14;;;;;;;107.88;44.40;;;10.30;99.90;;;10.30;97.40;102500.50;5076609;28;20040;-69
2022/04/15 04:32:49;;;;;;;91.22;44.95;;;10.20;99.90;;;10.23;98.23;102497.69;5076010;28;20097;-69
2022/04/15 04:35:19;;;;;;;78.63;46.13;;;10.10;99.90;;;10.79;98.51;102523.66;5076254;28;20036;-69
2022/04/15 04:37:48;;;;;;;72.43;46.15;;;10.40;99.90;;;10.73;97.17;102523.53;5075958;28;20478;-69
2022/04/15 04:40:17;;;;;;;87.75;45.10;;;10.50;99.90;;;10.83;97.19;102521.13;5058252;28;20087;-69
2022/04/15 04:42:49;;;;;;;177.40;47.17;;;10.50;99.90;;;10.30;97.64;102516.38;5076144;28;20090;-69
2022/04/15 04:45:18;;;;;;;103.32;48.75;;;10.30;99.90;;;10.28;98.84;102530.44;5075814;28;20064;-70
2022/04/15 04:47:48;;;;;;;99.97;47.22;;;10.10;99.90;;;10.20;99.62;102535.53;5075798;28;20072;-69
2022/04/15 04:50:17;;;;;;;69.40;45.47;;;10.00;99.90;;;9.54;99.63;102407.91;5075643;28;20458;-69
2022/04/15 04:52:46;;;;;;;80.53;45.80;;;10.00;99.90;;;10.22;99.68;102525.00;5075606;28;20064;-69
2022/04/15 04:55:17;;;;;;;95.55;45.33;;;10.00;99.90;;;10.41;99.63;102532.50;5075600;28;20045;-69
2022/04/15 04:57:47;;;;;;;158.43;43.97;;;10.20;99.90;;;10.15;100.00;102531.91;5075577;28;20037;-69
2022/04/15 05:00:17;;;;;;;114.13;44.90;;;10.00;99.90;;;10.02;100.00;102577.38;5075752;28;20079;-69
2022/04/15 05:02:46;;;;;;;86.93;44.25;;;9.90;99.90;;;10.22;100.00;102544.41;5075506;28;20041;-69
2022/04/15 05:05:14;;;;;;;96.53;43.17;;;10.00;99.90;;;10.36;100.00;102552.66;5075624;28;20044;-69
2022/04/15 05:07:43;;;;;;;97.18;45.80;;;10.10;99.90;;;10.24;100.00;102552.41;5075596;28;20063;-70
2022/04/15 05:10:11;;;;;;;138.38;46.17;;;10.00;99.90;;;9.99;100.00;102572.00;5075440;28;20059;-69
2022/04/15 05:12:40;;;;;;;73.18;43.25;;;9.90;99.90;;;10.21;100.00;102555.84;5075547;28;20098;-70
2022/04/15 05:15:11;;;;;;;93.65;43.85;;;10.00;99.90;;;10.11;100.00;102548.53;5075158;28;20045;-70
2022/04/15 05:17:40;;;;;;;92.07;44.38;;;10.00;99.90;;;10.05;100.00;102566.88;5075263;28;20037;-70
2022/04/15 05:20:10;;;;;;;101.13;45.08;;;9.90;99.90;;;10.03;100.00;102564.19;5075123;28;20128;-69
2022/04/15 05:22:38;;;;;;;74.95;43.45;;;9.90;99.90;;;10.19;100.00;102564.59;5075014;28;20068;-70
2022/04/15 05:25:07;;;;;;;86.68;42.10;;;10.00;99.90;;;10.27;100.00;102578.91;5074904;28;20502;-69
2022/04/15 05:27:35;;;;;;;70.63;43.15;;;10.10;99.90;;;10.21;100.00;102570.81;5075229;28;20509;-70
2022/04/15 05:30:06;;;;;;;70.90;39.70;;;10.00;99.90;;;10.28;100.00;102578.06;5075181;28;20045;-69
2022/04/15 05:32:36;;;;;;;64.10;41.05;;;10.10;99.90;;;10.10;100.00;102580.25;5056877;28;20044;-70
2022/04/15 05:35:05;;;;;;;62.45;39.05;;;9.90;99.90;;;10.14;100.00;102583.00;5074823;28;20047;-69
2022/04/15 05:37:34;;;;;;;62.00;37.72;;;9.90;99.90;;;10.15;100.00;102581.22;5074735;28;20048;-70
2022/04/15 05:40:03;;;;;;;64.05;39.00;;;9.90;99.90;;;9.97;100.00;102574.59;5074707;28;20478;-70
2022/04/15 05:42:31;;;;;;;63.80;39.75;;;9.90;99.90;;;9.95;100.00;102586.88;5074573;28;20188;-71
2022/04/15 05:44:59;;;;;;;62.42;39.30;;;9.80;99.90;;;9.99;100.00;102588.75;5074812;28;20407;-69
2022/04/15 05:47:28;;;;;;;61.75;39.75;;;9.80;99.90;;;9.99;100.00;102591.41;5074813;28;20048;-70
2022/04/15 05:49:58;;;;;;;60.78;38.33;;;9.80;99.90;;;10.06;100.00;102586.28;5074480;28;20069;-70
2022/04/15 05:52:30;;;;;;;64.25;39.90;;;9.90;99.90;;;10.23;100.00;102587.59;5056971;28;20052;-70
2022/04/15 05:54:58;;;;;;;56.50;38.80;;;10.00;99.90;;;10.30;100.00;102600.16;5074896;28;20498;-69
2022/04/15 05:57:27;;;;;;;62.40;38.58;;;10.00;99.90;;;10.56;100.00;102601.66;5074565;28;20059;-70
2022/04/15 05:59:55;;;;;;;57.00;37.20;;;10.30;99.90;;;10.30;100.00;102605.44;5074536;28;20071;-70
2022/04/15 06:02:24;;;;;;;56.58;38.47;;;10.20;99.90;;;10.10;100.00;102611.97;5073991;28;20071;-70
2022/04/15 06:04:53;;;;;;;62.38;38.80;;;9.90;99.90;;;10.48;100.00;102613.78;5056445;28;20151;-70
2022/04/15 06:07:22;;;;;;;57.30;36.67;;;10.10;99.90;;;10.78;100.00;102602.16;5074115;28;20460;-70
2022/04/15 06:09:51;;;;;;;48.42;34.13;;;10.50;99.90;;;11.07;100.00;102625.75;5073969;28;20554;-70
2022/04/15 06:12:21;;;;;;;50.70;34.65;;;10.70;99.90;;;11.21;98.95;102619.88;5074197;28;20051;-70
2022/04/15 06:14:50;;;;;;;49.58;33.25;;;11.00;99.90;;;11.38;97.62;102620.25;5073920;28;20494;-70
2022/04/15 06:17:22;;;;;;;46.63;34.38;;;11.10;99.90;;;11.46;97.10;102611.56;5073928;28;20036;-70
2022/04/15 06:19:50;;;;;;;46.25;32.55;;;11.20;99.90;;;11.60;95.87;102626.00;5073958;28;20068;-70
2022/04/15 06:22:19;;;;;;;44.30;32.28;;;11.30;99.90;;;11.71;94.85;102626.25;5074022;28;20483;-70
2022/04/15 06:24:48;;;;;;;52.42;34.17;;;11.40;99.90;;;11.70;93.85;102635.06;5056225;28;20059;-70
2022/04/15 06:27:17;;;;;;;51.72;34.95;;;11.50;99.90;;;11.68;92.66;102635.03;5073725;28;20477;-69
2022/04/15 06:29:45;;;;;;;52.03;35.65;;;11.50;99.90;;;11.51;93.75;102633.78;5073434;28;20040;-69
2022/04/15 06:32:13;;;;;;;49.00;34.63;;;11.30;99.90;;;11.75;93.27;102641.31;5073686;28;20063;-70
2022/04/15 06:34:42;;;;;;;52.97;35.67;;;11.40;99.90;;;11.92;92.72;102646.97;5073594;28;20566;-69
2022/04/15 06:37:10;;;;;;;46.17;33.55;;;11.60;99.90;;;11.91;92.01;102642.50;5055979;28;20048;-70
2022/04/15 06:39:39;;;;;;;47.17;34.40;;;11.70;99.90;;;12.09;91.35;102650.81;5073637;28;20056;-69
2022/04/15 06:42:09;;;;;;;45.17;33.28;;;11.80;99.90;;;12.15;90.78;102653.56;5073118;28;20052;-74
2022/04/15 06:44:38;;;;;;;;;;;11.90;99.90;;;12.17;90.43;102662.47;5073392;28;20037;-71
2022/04/15 06:47:07;;;;;;;43.30;32.17;;;11.90;99.90;;;11.94;90.14;102654.09;5072292;28;19934;-71
2022/04/15 06:49:35;;;;;;;43.63;31.55;;;11.80;99.90;;;11.78;90.00;102660.84;5073346;28;20413;-71
2022/04/15 06:52:05;;;;;;;42.88;31.73;;;11.60;99.90;;;12.02;90.12;102675.44;5073547;28;20456;-71
2022/04/15 06:54:33;;;;;;;42.72;31.98;;;11.70;99.90;;;12.14;89.66;102667.69;5073250;28;20501;-71
2022/04/15 06:57:02;;;;;;;45.22;32.60;;;11.90;99.90;;;12.15;88.92;102669.50;5073296;28;20409;-71
2022/04/15 06:59:32;;;;;;;46.95;33.20;;;11.90;99.90;;;12.24;88.51;102674.94;5073518;28;20090;-70
2022/04/15 07:02:01;;;;;;;43.22;32.20;;;12.00;99.90;;;12.35;88.29;102671.63;5055495;28;20049;-71
2022/04/15 07:04:30;;;;;;;46.35;32.60;;;12.00;99.90;;;12.36;87.92;102672.53;5054993;28;20044;-79
2022/04/15 07:06:58;;;;;;;43.92;31.98;;;12.10;99.90;;;12.30;87.91;102677.72;5073457;28;20036;-71
2022/04/15 07:09:28;;;;;;;45.25;33.40;;;12.10;99.90;;;12.45;87.78;102676.22;5073015;28;20094;-72
2022/04/15 07:11:57;;;;;;;47.55;32.95;;;12.20;99.90;;;12.10;87.68;102680.00;5055302;28;20494;-72
2022/04/15 07:14:25;;;;;;;46.45;33.63;;;12.00;99.90;;;11.94;89.95;102670.00;5073059;28;20044;-73
2022/04/15 07:16:55;;;;;;;43.88;31.92;;;11.80;99.90;;;11.71;89.27;102679.28;5072933;28;20121;-70
2022/04/15 07:19:24;;;;;;;47.15;33.17;;;11.60;99.90;;;11.54;91.70;102681.53;5073181;28;20460;-70
2022/04/15 07:21:52;;;;;;;48.92;33.72;;;11.30;99.90;;;11.09;92.10;102683.19;5073519;28;20137;-70
2022/04/15 07:24:21;;;;;;;54.53;33.85;;;11.10;99.90;;;10.96;94.89;102674.91;5072975;28;20493;-74
2022/04/15 07:26:50;;;;;;;47.53;33.25;;;10.70;99.90;;;10.77;94.66;102628.59;5073017;28;20437;-71
2022/04/15 07:29:20;;;;;;;56.05;35.88;;;10.80;99.90;;;11.06;95.17;102654.00;5073190;28;20051;-71
2022/04/15 07:31:48;;;;;;;54.40;34.15;;;10.90;99.90;;;11.01;95.11;102675.94;5055157;28;20050;-71
2022/04/15 07:34:18;;;;;;;43.92;31.13;;;10.90;99.90;;;10.99;95.78;102675.91;5073056;28;20048;-70
2022/04/15 07:36:53;;;;;;;42.75;29.75;;;10.80;99.90;;;10.59;95.96;102689.94;5073114;28;20119;-68
2022/04/15 07:39:23;;;;;;;43.83;30.65;;;10.50;99.90;;;11.18;96.26;102680.75;5072789;28;20072;-69
2022/04/15 07:41:52;;;;;;;42.58;29.00;;;10.80;99.90;;;11.35;94.34;102687.31;5073208;28;20068;-68
2022/04/15 07:44:21;;;;;;;43.90;28.95;;;11.10;99.90;;;11.60;93.21;102676.34;5076999;28;20142;-66
2022/04/15 07:46:50;;;;;;;37.45;27.25;;;11.30;99.90;;;11.64;91.50;102695.84;5076694;28;20460;-68
2022/04/15 07:49:20;;;;;;;36.10;26.63;;;11.40;99.90;;;11.85;90.20;102690.13;5076981;28;20056;-69
2022/04/15 07:51:49;;;;;;;36.50;27.38;;;11.60;99.90;;;12.03;88.67;102702.00;5077622;28;20544;-69
2022/04/15 07:54:17;;;;;;;36.05;27.38;;;11.80;99.90;;;11.97;87.57;102695.66;5076579;28;20498;-69
2022/04/15 07:56:46;;;;;;;38.75;27.88;;;11.80;99.90;;;12.21;87.22;102694.38;5076684;28;20055;-69
2022/04/15 07:59:14;;;;;;;37.53;27.73;;;12.00;99.90;;;12.31;86.88;102703.41;5076768;28;20097;-72
2022/04/15 08:01:42;;;;;;;35.10;27.83;;;12.00;99.90;;;12.28;86.71;102698.03;5076837;28;20040;-70
2022/04/15 08:04:11;;;;;;;34.53;25.52;;;12.10;99.90;;;11.71;88.22;102701.34;5076890;28;20040;-76
2022/04/15 08:06:41;;;;;;;31.48;22.70;;;11.70;99.90;;;11.80;87.89;102698.00;5059084;28;20056;-75
2022/04/15 08:09:09;;;;;;;26.47;18.70;;;11.60;99.90;;;11.22;89.48;102708.19;5076578;28;20037;-76
2022/04/15 08:11:37;;;;;;;24.48;19.00;;;11.20;99.90;;;11.50;89.90;102698.22;5076449;28;20290;-74
2022/04/15 08:14:06;;;;;;;26.95;18.65;;;11.20;99.90;;;11.77;88.57;102708.53;5076392;28;20036;-72
2022/04/15 08:16:34;;;;;;;19.35;15.70;;;11.50;99.90;;;11.82;87.42;102709.53;5076236;28;20040;-70
2022/04/15 08:19:03;;;;;;;19.48;16.05;;;11.60;99.90;;;11.93;87.09;102715.03;5058543;28;20087;-70
2022/04/15 08:21:33;;;;;;;18.38;14.85;;;11.70;99.90;;;11.84;86.91;102714.84;5076119;28;20037;-71
2022/04/15 08:24:02;;;;;;;17.05;13.43;;;11.60;99.90;;;12.00;85.72;102686.00;5076240;28;20075;-71
2022/04/15 08:26:31;;;;;;;16.05;13.48;;;11.90;99.90;;;12.52;84.76;102714.41;5076138;28;20045;-70
2022/04/15 08:29:00;;;;;;;15.93;13.35;;;12.20;99.90;;;12.80;83.32;102721.94;5076374;28;20042;-71
2022/04/15 08:31:28;;;;;;;15.38;12.40;;;12.50;99.90;;;12.65;81.94;102705.75;5076298;28;20072;-70
2022/04/15 08:33:56;;;;;;;15.23;11.50;;;12.60;99.90;;;12.43;82.68;102720.44;5074879;28;20072;-70
2022/04/15 08:36:26;;;;;;;16.30;12.45;;;12.30;99.90;;;12.46;82.36;102714.28;5076140;28;20544;-71
2022/04/15 08:38:55;;;;;;;16.58;11.68;;;12.30;99.90;;;12.18;82.55;102726.16;5075805;28;20048;-70
2022/04/15 08:41:26;;;;;;;16.02;11.73;;;12.00;99.90;;;12.57;81.29;102705.63;5075843;28;20036;-71
2022/04/15 08:43:55;;;;;;;14.43;11.93;;;12.40;99.90;;;12.39;80.18;102728.28;5058062;28;20048;-71
2022/04/15 08:46:24;;;;;;;15.45;11.63;;;12.20;99.90;;;12.45;80.43;102728.41;5075690;28;20044;-71
2022/04/15 08:48:53;;;;;;;14.32;10.70;;;12.20;99.90;;;12.88;80.97;102727.38;5057770;28;20101;-71
2022/04/15 08:51:22;;;;;;;14.18;11.13;;;12.50;99.90;;;12.67;79.24;102727.91;5075998;28;20486;-70
2022/04/15 08:53:54;;;;;;;13.80;11.20;;;12.50;99.90;;;12.81;78.61;102728.16;5075259;28;20045;-71
2022/04/15 08:56:25;;;;;;;15.32;11.15;;;12.70;99.90;;;13.20;80.37;102727.03;5075632;28;20044;-70
2022/04/15 08:58:53;;;;;;;17.10;11.27;;;12.90;99.90;;;13.22;80.30;102733.25;5075620;28;20047;-70
2022/04/15 09:01:21;;;;;;;21.73;11.25;;;13.00;99.90;;;12.87;78.90;102731.81;5075995;28;20044;-71
2022/04/15 09:03:50;;;;;;;15.13;11.90;;;12.70;99.90;;;12.95;79.47;102740.75;5074632;28;20155;-71
2022/04/15 09:06:19;;;;;;;14.88;11.10;;;12.70;99.90;;;12.70;78.86;102738.59;5075565;28;20056;-71
2022/04/15 09:09:08;;;;;;;15.13;12.02;;;12.50;99.90;;;12.51;80.87;102733.81;5074174;28;20048;-70
2022/04/15 09:11:39;;;;;;;18.45;11.02;;;12.40;99.90;;;12.58;80.34;102731.31;5075602;28;20044;-71
2022/04/15 09:14:11;;;;;;;12.60;10.60;;;12.40;99.90;;;12.50;80.86;102740.03;5075301;28;20103;-70
2022/04/15 09:16:41;;;;;;;14.38;10.90;;;12.30;99.90;;;12.34;80.40;102740.59;5075745;28;20101;-71
2022/04/15 09:19:12;;;;;;;17.15;11.77;;;12.20;99.90;;;11.79;82.17;102712.09;5074366;28;20052;-71
2022/04/15 09:21:44;;;;;;;;;;;11.90;99.90;;;12.34;81.12;102743.25;5075511;28;20494;-71
2022/04/15 09:24:13;;;;;;;13.57;11.40;;;12.10;99.90;;;12.14;83.29;102732.25;5075318;28;19925;-71
2022/04/15 09:26:45;;;;;;;21.73;11.27;;;12.00;99.90;;;13.10;83.05;102737.50;5075002;28;20547;-71
2022/04/15 09:29:14;;;;;;;13.32;10.70;;;12.60;99.90;;;13.46;80.32;102736.28;5075223;28;20090;-71
2022/04/15 09:31:45;;;;;;;15.95;10.88;;;13.10;99.90;;;13.54;78.34;102747.00;5074842;28;20076;-71
2022/04/15 09:34:14;;;;;;;17.35;11.20;;;13.30;99.90;;;13.84;76.98;102751.84;5057186;28;20054;-71
2022/04/15 09:36:44;;;;;;;17.73;11.05;;;13.60;99.90;;;12.82;78.26;102757.38;5074814;28;20090;-71
2022/04/15 09:39:14;;;;;;;13.23;10.40;;;12.90;99.90;;;13.25;81.40;102754.56;5074767;28;20053;-71
2022/04/15 09:41:50;;;;;;;;;;;12.90;99.90;;;14.07;77.64;102766.31;5057259;28;20057;-71
2022/04/15 09:44:22;;;;;;;11.52;9.60;;;13.60;99.90;;;13.69;76.43;102762.25;5074797;28;19920;-71
2022/04/15 09:46:53;;;;;;;15.15;10.40;;;13.50;99.90;;;13.90;74.71;102767.88;5075007;28;20051;-71
2022/04/15 09:49:25;;;;;;;11.25;9.45;;;13.80;99.90;;;14.13;75.68;102769.06;5074340;28;20040;-71
2022/04/15 09:51:54;;;;;;;13.57;9.90;;;13.80;99.90;;;13.62;75.90;102758.66;5074544;28;20037;-71
2022/04/15 09:54:24;;;;;;;14.57;9.50;;;13.50;99.90;;;13.21;75.98;102767.78;5056794;28;20127;-71
2022/04/15 09:56:57;;;;;;;12.68;9.80;;;13.10;99.90;;;13.43;78.14;102768.13;5074433;28;20070;-71
2022/04/15 09:59:27;;;;;;;9.77;8.77;;;13.10;99.90;;;13.65;75.42;102766.66;5056917;28;20045;-71
2022/04/15 10:01:58;;;;;;;12.18;9.05;;;13.40;99.90;;;13.67;76.67;102754.25;5074658;28;20044;-70
2022/04/15 10:04:28;;;;;;;12.10;10.15;;;13.30;99.90;;;13.74;74.52;102771.22;5073499;28;20410;-71
2022/04/15 10:06:56;;;;;;;11.35;9.10;;;13.60;99.90;;;13.68;76.25;102771.13;5074500;28;20044;-71
2022/04/15 10:09:25;;;;;;;11.38;9.40;;;13.40;99.90;;;13.81;75.49;102762.44;5074103;28;20048;-71